createdAt,value
2018-08-28T00:02:14.201Z,3.30
2018-08-28T00:04:41.951Z,4.50
2018-08-28T00:07:09.733Z,3.97
2018-08-28T00:09:37.526Z,4.00
2018-08-28T00:12:05.251Z,3.10
2018-08-28T00:14:33.045Z,3.30
2018-08-28T00:17:00.859Z,3.43
2018-08-28T00:19:28.634Z,4.10
2018-08-28T00:22:09.866Z,3.43
2018-08-28T00:24:58.663Z,3.33
2018-08-28T00:27:26.753Z,2.80
2018-08-28T00:30:24.980Z,2.77
2018-08-28T00:32:52.777Z,3.20
2018-08-28T00:35:20.541Z,3.40
2018-08-28T00:37:48.349Z,2.97
2018-08-28T00:40:16.214Z,3.77
2018-08-28T00:42:44.991Z,3.40
2018-08-28T00:45:12.735Z,3.10
2018-08-28T00:47:41.565Z,3.23
2018-08-28T00:50:09.385Z,3.03
2018-08-28T00:52:37.146Z,3.23
2018-08-28T00:55:04.968Z,2.90
2018-08-28T00:57:32.702Z,2.97
2018-08-28T01:00:00.439Z,3.33
2018-08-28T01:02:28.204Z,2.67
2018-08-28T01:04:56.003Z,2.83
2018-08-28T01:07:24.796Z,3.23
2018-08-28T01:09:52.581Z,3.13
2018-08-28T01:12:20.399Z,3.53
2018-08-28T01:15:19.145Z,2.63
2018-08-28T01:18:11.088Z,3.03
2018-08-28T01:20:42.162Z,2.50
2018-08-28T01:29:11.443Z,3.27
2018-08-28T01:31:39.187Z,3.93
2018-08-28T01:34:06.968Z,3.53
2018-08-28T01:36:34.761Z,2.90
2018-08-28T01:39:02.667Z,3.60
2018-08-28T01:41:30.438Z,2.93
2018-08-28T01:43:58.216Z,3.43
2018-08-28T01:46:26.005Z,3.97
2018-08-28T01:48:53.777Z,3.57
2018-08-28T01:51:21.525Z,3.53
2018-08-28T01:53:49.368Z,3.47
2018-08-28T01:56:17.134Z,3.43
2018-08-28T01:58:44.905Z,3.83
2018-08-28T02:01:12.693Z,4.10
2018-08-28T02:03:40.462Z,4.43
2018-08-28T02:06:08.267Z,3.47
2018-08-28T02:08:36.028Z,3.87
2018-08-28T02:11:04.112Z,5.10
2018-08-28T02:13:45.255Z,4.07
2018-08-28T02:16:13.074Z,4.10
2018-08-28T02:18:40.872Z,3.90
2018-08-28T02:21:08.640Z,3.70
2018-08-28T02:23:36.404Z,5.00
2018-08-28T02:26:04.165Z,4.50
2018-08-28T02:28:31.948Z,3.93
2018-08-28T02:30:59.735Z,4.23
2018-08-28T02:33:27.520Z,5.27
2018-08-28T02:35:55.295Z,4.83
2018-08-28T02:38:23.099Z,6.30
2018-08-28T02:40:50.868Z,4.83
2018-08-28T02:43:18.664Z,4.67
2018-08-28T02:45:46.464Z,4.50
2018-08-28T02:48:14.210Z,4.90
2018-08-28T02:50:42.074Z,5.77
2018-08-28T02:53:09.834Z,4.93
2018-08-28T02:55:37.632Z,5.50
2018-08-28T02:58:05.416Z,5.17
2018-08-28T03:00:33.207Z,5.10
2018-08-28T03:03:00.975Z,5.50
2018-08-28T03:05:28.760Z,6.20
2018-08-28T03:07:56.526Z,6.20
2018-08-28T03:10:24.389Z,4.87
2018-08-28T03:12:52.181Z,4.90
2018-08-28T03:15:20.016Z,5.30
2018-08-28T03:18:22.180Z,5.70
2018-08-28T03:20:49.986Z,5.57
2018-08-28T03:23:17.769Z,4.83
2018-08-28T03:25:45.519Z,4.70
2018-08-28T03:28:14.278Z,5.17
2018-08-28T03:30:42.080Z,4.37
2018-08-28T03:33:10.880Z,5.00
2018-08-28T03:35:38.637Z,5.67
2018-08-28T03:38:06.435Z,5.43
2018-08-28T03:40:34.228Z,5.67
2018-08-28T03:43:02.020Z,5.17
2018-08-28T03:45:29.832Z,5.30
2018-08-28T03:47:58.620Z,5.37
2018-08-28T03:50:26.423Z,6.07
2018-08-28T03:52:54.213Z,7.07
2018-08-28T03:55:22.015Z,6.87
2018-08-28T03:57:49.795Z,7.63
2018-08-28T04:00:17.552Z,6.80
2018-08-28T04:02:45.305Z,7.53
2018-08-28T04:05:13.136Z,8.17
2018-08-28T04:07:40.886Z,8.30
2018-08-28T04:10:08.686Z,8.63
2018-08-28T04:12:36.524Z,7.90
2018-08-28T04:15:04.341Z,8.43
2018-08-28T04:17:36.928Z,9.10
2018-08-28T04:20:04.785Z,9.80
2018-08-28T04:22:32.565Z,8.80
2018-08-28T04:25:08.014Z,10.37
2018-08-28T04:30:45.812Z,10.33
2018-08-28T04:33:13.824Z,10.63
2018-08-28T04:35:41.767Z,10.83
2018-08-28T04:38:09.735Z,11.20
2018-08-28T04:40:37.622Z,11.10
2018-08-28T04:43:05.596Z,12.27
2018-08-28T04:45:33.480Z,11.03
2018-08-28T04:48:01.422Z,10.60
2018-08-28T04:50:29.277Z,11.93
2018-08-28T04:52:57.283Z,11.63
2018-08-28T04:55:25.179Z,11.60
2018-08-28T04:57:53.056Z,11.83
2018-08-28T05:00:20.966Z,11.50
2018-08-28T05:02:48.951Z,12.63
2018-08-28T05:05:16.833Z,12.73
2018-08-28T05:07:44.641Z,13.80
2018-08-28T05:10:12.557Z,13.43
2018-08-28T05:12:40.456Z,12.13
2018-08-28T05:15:08.319Z,25.47
2018-08-28T05:17:36.219Z,26.60
2018-08-28T05:20:04.295Z,14.93
2018-08-28T05:22:32.271Z,10.73
2018-08-28T05:25:00.160Z,11.20
2018-08-28T05:27:28.162Z,8.37
2018-08-28T05:29:56.000Z,8.00
2018-08-28T05:32:23.849Z,5.60
2018-08-28T05:34:51.729Z,4.70
2018-08-28T05:37:19.539Z,4.27
2018-08-28T05:39:47.339Z,3.90
2018-08-28T05:42:15.183Z,2.63
2018-08-28T05:44:43.047Z,2.90
2018-08-28T05:47:10.857Z,2.70
2018-08-28T05:49:38.733Z,3.43
2018-08-28T05:52:06.547Z,2.43
2018-08-28T05:54:34.367Z,2.93
2018-08-28T05:57:03.175Z,2.53
2018-08-28T05:59:31.007Z,2.63
2018-08-28T06:01:58.829Z,3.47
2018-08-28T06:04:27.624Z,2.97
2018-08-28T06:06:55.440Z,2.60
2018-08-28T06:09:23.236Z,2.50
2018-08-28T06:11:51.026Z,2.87
2018-08-28T06:14:18.822Z,2.50
2018-08-28T06:16:46.864Z,1.73
2018-08-28T06:19:14.675Z,2.53
2018-08-28T06:21:42.483Z,2.17
2018-08-28T06:27:37.196Z,1.93
2018-08-28T06:30:05.179Z,2.67
2018-08-28T06:32:33.144Z,1.90
2018-08-28T06:35:01.026Z,1.70
2018-08-28T06:37:29.015Z,2.12
2018-08-28T06:39:56.915Z,2.80
2018-08-28T06:42:24.893Z,1.70
2018-08-28T06:44:52.781Z,2.37
2018-08-28T06:47:20.799Z,2.10
2018-08-28T06:49:48.694Z,2.27
2018-08-28T06:52:16.720Z,1.72
2018-08-28T06:54:44.602Z,2.27
2018-08-28T06:57:12.600Z,1.70
2018-08-28T06:59:40.542Z,2.03
2018-08-28T07:02:08.525Z,1.97
2018-08-28T07:04:36.433Z,1.93
2018-08-28T07:07:04.634Z,1.90
2018-08-28T07:09:32.576Z,3.10
2018-08-28T07:12:00.570Z,2.10
2018-08-28T07:14:28.502Z,1.60
2018-08-28T07:16:56.547Z,2.03
2018-08-28T07:19:24.467Z,1.87
2018-08-28T07:21:52.490Z,2.08
2018-08-28T07:24:20.594Z,1.92
2018-08-28T07:26:48.554Z,1.82
2018-08-28T07:29:16.437Z,2.40
2018-08-28T07:31:45.445Z,1.95
2018-08-28T07:34:13.436Z,2.35
2018-08-28T07:36:43.986Z,2.10
2018-08-28T07:39:11.807Z,2.33
2018-08-28T07:41:39.624Z,1.70
2018-08-28T07:44:07.516Z,2.50
2018-08-28T07:46:35.349Z,2.47
2018-08-28T07:49:03.201Z,2.80
2018-08-28T07:51:31.113Z,1.87
2018-08-28T07:53:59.350Z,1.82
2018-08-28T07:56:28.184Z,1.35
2018-08-28T07:58:56.090Z,2.13
2018-08-28T08:01:25.844Z,2.10
2018-08-28T08:03:53.671Z,1.40
2018-08-28T08:06:22.651Z,1.92
2018-08-28T08:08:52.538Z,5.10
2018-08-28T08:11:20.603Z,1.50
2018-08-28T08:13:48.884Z,1.32
2018-08-28T08:16:18.140Z,1.62
2018-08-28T08:18:47.796Z,1.72
2018-08-28T08:21:16.714Z,1.65
2018-08-28T08:23:45.216Z,1.87
2018-08-28T08:26:13.061Z,1.47
2018-08-28T08:28:41.473Z,1.57
2018-08-28T08:31:09.305Z,2.00
2018-08-28T08:33:37.126Z,1.47
2018-08-28T08:36:05.783Z,2.50
2018-08-28T08:38:33.604Z,2.40
2018-08-28T08:41:01.485Z,1.72
2018-08-28T08:43:29.458Z,2.47
2018-08-28T08:45:57.845Z,1.67
2018-08-28T08:48:25.693Z,1.82
2018-08-28T08:50:53.730Z,1.70
2018-08-28T08:53:22.527Z,2.00
2018-08-28T08:55:50.341Z,1.98
2018-08-28T08:58:18.177Z,1.60
2018-08-28T09:00:46.048Z,1.82
2018-08-28T09:03:14.065Z,2.27
2018-08-28T09:05:41.955Z,2.30
2018-08-28T09:08:10.812Z,1.32
2018-08-28T09:10:39.680Z,1.80
2018-08-28T09:13:07.512Z,1.85
2018-08-28T09:15:36.012Z,1.65
2018-08-28T09:18:04.161Z,1.55
2018-08-28T09:20:32.049Z,1.70
2018-08-28T09:23:00.296Z,2.02
2018-08-28T09:25:28.367Z,1.52
2018-08-28T09:27:56.723Z,1.27
2018-08-28T09:30:24.552Z,1.90
2018-08-28T09:32:52.353Z,1.70
2018-08-28T09:35:20.472Z,1.50
2018-08-28T09:37:48.496Z,1.32
2018-08-28T09:40:17.341Z,1.20
2018-08-28T09:42:46.260Z,0.70
2018-08-28T09:45:14.495Z,0.70
2018-08-28T09:47:42.998Z,0.98
2018-08-28T09:50:10.829Z,0.70
2018-08-28T09:52:40.278Z,0.70
2018-08-28T09:55:08.297Z,0.80
2018-08-28T09:57:36.264Z,0.50
2018-08-28T10:00:04.260Z,0.55
2018-08-28T10:02:32.194Z,0.72
2018-08-28T10:05:01.591Z,0.75
2018-08-28T10:07:29.426Z,0.50
2018-08-28T10:09:58.887Z,0.50
2018-08-28T10:12:27.516Z,0.68
2018-08-28T10:14:56.187Z,0.55
2018-08-28T10:17:24.342Z,0.80
2018-08-28T10:19:52.689Z,0.60
2018-08-28T10:22:28.140Z,0.50
2018-08-28T10:24:56.375Z,0.40
2018-08-28T10:27:25.480Z,0.40
2018-08-28T10:29:55.556Z,0.57
2018-08-28T10:32:24.347Z,0.70
2018-08-28T10:34:52.140Z,0.65
2018-08-28T10:37:19.936Z,0.60
2018-08-28T10:39:48.771Z,0.50
2018-08-28T10:42:16.573Z,0.80
2018-08-28T10:44:45.322Z,0.78
2018-08-28T10:47:13.084Z,0.90
2018-08-28T10:49:41.163Z,0.72
2018-08-28T10:52:09.155Z,0.50
2018-08-28T10:54:37.089Z,0.50
2018-08-28T10:57:06.102Z,0.55
2018-08-28T10:59:33.924Z,0.60
2018-08-28T11:02:02.877Z,0.70
2018-08-28T11:04:30.737Z,0.50
2018-08-28T11:06:58.532Z,0.75
2018-08-28T11:09:26.373Z,0.33
2018-08-28T11:11:54.201Z,0.30
2018-08-28T11:14:21.963Z,0.60
2018-08-28T11:16:49.755Z,0.40
2018-08-28T11:19:17.595Z,0.68
2018-08-28T11:21:45.479Z,0.40
2018-08-28T11:24:13.280Z,0.40
2018-08-28T11:26:41.102Z,0.40
2018-08-28T11:29:08.939Z,0.75
2018-08-28T11:31:36.743Z,0.78
2018-08-28T11:34:04.660Z,0.60
2018-08-28T11:36:32.466Z,0.53
2018-08-28T11:39:00.267Z,0.50
2018-08-28T11:41:28.078Z,0.50
2018-08-28T11:43:55.925Z,0.50
2018-08-28T11:46:23.746Z,0.75
2018-08-28T11:48:51.594Z,0.33
2018-08-28T11:51:19.374Z,0.50
2018-08-28T11:53:47.251Z,0.55
2018-08-28T11:56:15.117Z,0.50
2018-08-28T11:58:42.938Z,0.55
2018-08-28T12:01:10.778Z,0.70
2018-08-28T12:03:38.623Z,0.53
2018-08-28T12:06:06.466Z,0.60
2018-08-28T12:08:34.262Z,0.68
2018-08-28T12:11:24.700Z,0.57
2018-08-28T12:13:52.722Z,0.40
2018-08-28T12:16:20.672Z,0.50
2018-08-28T12:18:48.579Z,0.60
2018-08-28T12:21:16.626Z,0.40
2018-08-28T12:23:44.569Z,0.50
2018-08-28T12:26:12.521Z,1.20
2018-08-28T12:28:40.456Z,0.75
2018-08-28T12:31:08.379Z,0.60
2018-08-28T12:33:36.296Z,0.65
2018-08-28T12:36:04.214Z,0.50
2018-08-28T12:38:32.154Z,0.45
2018-08-28T12:41:00.116Z,0.68
2018-08-28T12:43:28.018Z,0.60
2018-08-28T12:45:55.938Z,0.53
2018-08-28T12:48:23.858Z,0.93
2018-08-28T12:50:51.773Z,0.60
2018-08-28T12:53:19.749Z,0.60
2018-08-28T12:55:47.630Z,0.50
2018-08-28T12:58:15.552Z,0.60
2018-08-28T13:00:43.513Z,0.75
2018-08-28T13:03:11.489Z,0.68
2018-08-28T13:05:39.494Z,0.75
2018-08-28T13:08:07.398Z,0.75
2018-08-28T13:10:35.399Z,0.60
2018-08-28T13:15:50.497Z,0.80
2018-08-28T13:18:18.303Z,1.17
2018-08-28T13:20:47.132Z,0.37
2018-08-28T13:23:15.996Z,0.40
2018-08-28T13:25:43.830Z,0.70
2018-08-28T13:28:12.117Z,0.50
2018-08-28T13:33:40.644Z,0.62
2018-08-28T13:40:23.377Z,0.60
2018-08-28T13:42:51.137Z,1.15
2018-08-28T13:45:18.959Z,0.80
2018-08-28T13:47:46.738Z,0.82
2018-08-28T13:50:14.601Z,0.60
2018-08-28T13:52:42.365Z,0.80
2018-08-28T13:55:13.803Z,0.80
2018-08-28T13:57:41.711Z,0.70
2018-08-28T14:00:09.738Z,0.68
2018-08-28T14:02:37.516Z,0.70
2018-08-28T14:05:05.443Z,0.57
2018-08-28T14:07:33.265Z,1.20
2018-08-28T14:10:01.175Z,1.32
2018-08-28T14:12:29.145Z,0.98
2018-08-28T14:14:58.036Z,0.60
2018-08-28T14:17:25.939Z,1.77
2018-08-28T14:19:54.238Z,0.95
2018-08-28T14:22:22.261Z,0.70
2018-08-28T14:24:49.998Z,0.85
2018-08-28T14:27:17.896Z,0.62
2018-08-28T14:29:45.694Z,0.85
2018-08-28T14:32:14.939Z,0.80
2018-08-28T14:34:42.770Z,1.15
2018-08-28T14:37:10.721Z,0.93
2018-08-28T14:39:38.601Z,0.78
2018-08-28T14:42:06.404Z,0.95
2018-08-28T14:44:34.305Z,1.02
2018-08-28T14:47:02.153Z,1.17
2018-08-28T14:49:30.214Z,1.30
2018-08-28T14:51:58.051Z,0.80
2018-08-28T14:54:25.854Z,0.88
2018-08-28T14:56:53.631Z,2.35
2018-08-28T14:59:22.597Z,2.67
2018-08-28T15:01:50.439Z,1.00
2018-08-28T15:04:18.359Z,1.65
2018-08-28T15:06:46.239Z,0.57
2018-08-28T15:09:14.095Z,1.07
2018-08-28T15:11:41.960Z,1.27
2018-08-28T15:14:10.747Z,1.40
2018-08-28T15:16:38.884Z,0.78
2018-08-28T15:19:06.662Z,1.60
2018-08-28T15:21:35.673Z,0.80
2018-08-28T15:24:03.475Z,1.00
2018-08-28T15:26:31.302Z,1.07
2018-08-28T15:28:59.104Z,0.80
2018-08-28T15:31:26.942Z,1.20
2018-08-28T15:33:54.703Z,1.95
2018-08-28T15:36:22.746Z,1.15
2018-08-28T15:38:50.612Z,1.00
2018-08-28T15:41:18.371Z,0.80
2018-08-28T15:43:46.165Z,0.88
2018-08-28T15:46:14.153Z,1.12
2018-08-28T15:48:41.943Z,1.45
2018-08-28T15:51:09.891Z,0.90
2018-08-28T15:53:38.702Z,0.80
2018-08-28T15:56:06.669Z,1.22
2018-08-28T15:58:34.473Z,1.12
2018-08-28T16:01:02.344Z,1.20
2018-08-28T16:03:30.285Z,1.22
2018-08-28T16:05:58.271Z,1.00
2018-08-28T16:08:26.099Z,0.80
2018-08-28T16:10:55.614Z,0.90
2018-08-28T16:13:23.569Z,1.07
2018-08-28T16:15:51.414Z,0.75
2018-08-28T16:18:20.392Z,1.10
2018-08-28T16:20:48.235Z,1.00
2018-08-28T16:23:21.749Z,0.55
2018-08-28T16:25:49.619Z,0.65
2018-08-28T16:28:17.657Z,0.60
2018-08-28T16:30:45.464Z,0.70
2018-08-28T16:33:13.308Z,1.35
2018-08-28T16:35:41.122Z,0.65
2018-08-28T16:38:09.049Z,1.12
2018-08-28T16:40:36.896Z,0.90
2018-08-28T16:43:04.703Z,0.65
2018-08-28T16:45:33.680Z,0.40
2018-08-28T16:48:01.453Z,0.60
2018-08-28T16:50:29.349Z,0.70
2018-08-28T16:52:57.154Z,1.55
2018-08-28T16:55:24.941Z,1.98
2018-08-28T16:57:52.764Z,1.20
2018-08-28T17:00:20.748Z,0.68
2018-08-28T17:02:48.551Z,0.75
2018-08-28T17:05:17.553Z,1.22
2018-08-28T17:07:45.428Z,2.10
2018-08-28T17:10:13.249Z,0.80
2018-08-28T17:12:42.261Z,1.67
2018-08-28T17:15:10.263Z,1.25
2018-08-28T17:17:38.111Z,1.52
2018-08-28T17:20:05.983Z,2.35
2018-08-28T17:22:34.008Z,1.07
2018-08-28T17:25:01.802Z,1.77
2018-08-28T17:27:29.773Z,1.07
2018-08-28T17:29:57.595Z,1.85
2018-08-28T17:32:25.563Z,1.80
2018-08-28T17:34:53.448Z,1.50
2018-08-28T17:37:23.118Z,1.40
2018-08-28T17:39:50.875Z,5.95
2018-08-28T17:42:18.707Z,2.77
2018-08-28T17:44:46.728Z,2.30
2018-08-28T17:47:14.560Z,2.98
2018-08-28T17:49:44.339Z,3.02
2018-08-28T17:52:12.185Z,3.50
2018-08-28T17:54:40.226Z,3.60
2018-08-28T17:57:08.172Z,3.65
2018-08-28T17:59:36.931Z,3.55
2018-08-28T18:02:04.917Z,3.62
2018-08-28T18:04:32.815Z,3.30
2018-08-28T18:07:00.640Z,3.47
2018-08-28T18:09:29.557Z,3.27
2018-08-28T18:11:57.373Z,4.20
2018-08-28T18:14:33.476Z,3.50
2018-08-28T18:17:01.302Z,4.28
2018-08-28T18:19:29.313Z,5.05
2018-08-28T18:24:38.573Z,5.67
2018-08-28T18:27:36.516Z,4.80
2018-08-28T18:30:04.875Z,4.95
2018-08-28T18:32:32.701Z,5.35
2018-08-28T18:35:00.629Z,5.53
2018-08-28T18:37:28.451Z,5.10
2018-08-28T18:39:56.425Z,6.00
2018-08-28T18:42:24.225Z,7.08
2018-08-28T18:44:52.166Z,7.40
2018-08-28T18:47:19.986Z,6.78
2018-08-28T18:49:48.023Z,9.70
2018-08-28T18:52:16.161Z,9.15
2018-08-28T18:54:44.444Z,9.93
2018-08-28T18:57:12.384Z,8.45
2018-08-28T18:59:40.510Z,8.03
2018-08-28T19:02:08.574Z,7.47
2018-08-28T19:04:36.705Z,7.85
2018-08-28T19:07:04.610Z,9.00
2018-08-28T19:09:32.462Z,9.75
2018-08-28T19:12:00.526Z,9.87
2018-08-28T19:14:28.416Z,8.85
2018-08-28T19:16:56.449Z,9.97
2018-08-28T19:19:24.277Z,11.80
2018-08-28T19:21:52.104Z,11.15
2018-08-28T19:24:19.925Z,10.37
2018-08-28T19:26:47.927Z,11.10
2018-08-28T19:29:15.747Z,12.20
2018-08-28T19:31:43.592Z,11.95
2018-08-28T19:34:11.407Z,12.60
2018-08-28T19:36:39.303Z,14.47
2018-08-28T19:39:08.261Z,11.90
2018-08-28T19:42:10.201Z,13.55
2018-08-28T19:44:38.128Z,12.47
2018-08-28T19:49:41.663Z,12.87
2018-08-28T19:52:09.563Z,12.60
2018-08-28T19:54:37.515Z,12.53
2018-08-28T19:57:05.588Z,12.30
2018-08-28T19:59:33.316Z,13.50
2018-08-28T20:02:02.165Z,14.23
2018-08-28T20:04:29.976Z,14.07
2018-08-28T20:06:58.796Z,15.57
2018-08-28T20:09:26.564Z,16.57
2018-08-28T20:11:54.375Z,16.70
2018-08-28T20:14:22.203Z,18.23
2018-08-28T20:16:50.095Z,18.03
2018-08-28T20:19:17.927Z,18.80
2018-08-28T20:21:45.730Z,17.60
2018-08-28T20:24:13.541Z,18.63
2018-08-28T20:26:41.436Z,18.60
2018-08-28T20:29:10.287Z,20.00
2018-08-28T20:31:38.087Z,19.83
2018-08-28T20:34:06.265Z,18.87
2018-08-28T20:36:34.067Z,18.93
2018-08-28T20:39:01.905Z,18.87
2018-08-28T20:41:30.498Z,18.70
2018-08-28T20:43:58.349Z,20.30
2018-08-28T20:46:26.192Z,20.50
2018-08-28T20:48:54.044Z,19.97
2018-08-28T20:51:21.860Z,19.20
2018-08-28T20:53:49.702Z,21.13
2018-08-28T20:56:17.512Z,21.73
2018-08-28T20:58:45.337Z,22.57
2018-08-28T21:01:13.144Z,23.50
2018-08-28T21:03:42.991Z,36.20
2018-08-28T21:06:10.857Z,27.62
2018-08-28T21:08:38.680Z,22.73
2018-08-28T21:11:07.535Z,22.93
2018-08-28T21:13:35.364Z,22.20
2018-08-28T21:16:03.265Z,23.20
2018-08-28T21:18:31.055Z,23.03
2018-08-28T21:20:58.816Z,22.60
2018-08-28T21:23:26.699Z,23.37
2018-08-28T21:25:54.493Z,23.83
2018-08-28T21:28:22.315Z,23.20
2018-08-28T21:30:50.119Z,24.13
2018-08-28T21:33:18.121Z,20.93
2018-08-28T21:35:46.200Z,23.87
2018-08-28T21:38:14.061Z,22.90
2018-08-28T21:40:42.041Z,23.47
2018-08-28T21:43:09.951Z,24.13
2018-08-28T21:45:37.899Z,24.40
2018-08-28T21:48:05.864Z,24.77
2018-08-28T21:50:33.985Z,26.63
2018-08-28T21:53:01.853Z,26.90
2018-08-28T21:55:29.861Z,26.10
2018-08-28T21:57:57.781Z,27.03
2018-08-28T22:00:25.702Z,27.83
2018-08-28T22:02:53.664Z,28.70
2018-08-28T22:05:27.136Z,29.30
2018-08-28T22:08:00.914Z,29.47
2018-08-28T22:10:29.437Z,27.37
2018-08-28T22:12:58.460Z,28.60
2018-08-28T22:15:26.434Z,28.07
2018-08-28T22:17:54.756Z,27.17
2018-08-28T22:20:22.687Z,28.33
2018-08-28T22:22:52.437Z,28.90
2018-08-28T22:25:20.497Z,29.03
2018-08-28T22:27:48.535Z,29.93
2018-08-28T22:30:16.524Z,31.73
2018-08-28T22:32:44.507Z,32.70
2018-08-28T22:35:12.412Z,30.47
2018-08-28T22:37:40.428Z,30.13
2018-08-28T22:40:10.059Z,33.27
2018-08-28T22:42:38.046Z,31.27
2018-08-28T22:45:05.921Z,34.70
2018-08-28T22:47:33.810Z,34.57
2018-08-28T22:50:01.662Z,32.50
2018-08-28T22:52:29.776Z,33.23
2018-08-28T22:54:57.625Z,30.60
2018-08-28T22:57:25.556Z,34.77
2018-08-28T22:59:53.483Z,34.60
2018-08-28T23:02:42.832Z,33.50
2018-08-28T23:05:11.461Z,33.47
2018-08-28T23:07:40.255Z,34.57
2018-08-28T23:10:09.987Z,39.37
2018-08-28T23:12:38.570Z,41.73
2018-08-28T23:15:07.273Z,40.53
2018-08-28T23:17:35.980Z,42.47
2018-08-28T23:20:04.979Z,42.50
2018-08-28T23:22:33.586Z,42.97
2018-08-28T23:25:45.292Z,44.47
2018-08-28T23:28:45.264Z,42.67
2018-08-28T23:31:13.117Z,46.23
2018-08-28T23:33:48.651Z,48.00
2018-08-28T23:39:06.386Z,51.73
2018-08-28T23:41:34.222Z,54.47
2018-08-28T23:44:02.289Z,53.10
2018-08-28T23:46:31.094Z,52.80
2018-08-28T23:48:58.915Z,55.03
2018-08-28T23:51:26.773Z,57.60
2018-08-28T23:53:54.614Z,56.43
2018-08-28T23:56:22.451Z,58.00
2018-08-28T23:58:50.328Z,58.50
